»·PEaware :: N281SP KSBP-KBFL

N281SP :: KSBP-KBFL

FLIGHT INFORMATION

Flight Status: Arrived
Operator: Privately registered:
United States
More flights under this callsign
Pilot: Anonymous 20671 (20671)
Aircraft: CESSNA 172 SKYHAWK
(C172)
More flights by this aircraft type
Origin: KSBP San Luis Co Regl
United States
Destination: KBFL Meadows
United States
More flights between these airports :: More routes between these airports
Route: +
File this flight plan on PilotEdge
Remarks: CAT5
Altitude:
(Current/Filed)
0ft
Speed:
(Current/Filed)
0kts
Departed: 06-Dec-18 01:52 PM
Arrived: 06-Dec-18 02:39 PM
Distance/Time
Traveled:
79nm/0:47
Distance/Time
To Go:
Arrived

Flight Plot

Page will automatically refresh every two minutes.


Map Options




Map Legend


Flown Route
Filed Route
Departure Airport
Arrival Airport
Navaid (VOR, NDB)
Fix

Horizontal Profiles

Position Reports

Time Latitude Longitude Heading Altitude Ground
Speed
06-Dec-18 13:49 34.895844 -120.444848 240 265ft 3kts
06-Dec-18 13:50 34.893270 -120.444966 181 265ft 0kts
06-Dec-18 13:51 34.893089 -120.446183 311 265ft 21kts
06-Dec-18 13:52 34.906796 -120.460927 351 1124ft 76kts
06-Dec-18 13:53 34.918868 -120.439453 66 2145ft 85kts
06-Dec-18 13:54 34.923607 -120.425781 61 2657ft 86kts
06-Dec-18 13:55 34.933441 -120.398688 62 3533ft 97kts
06-Dec-18 13:56 34.943984 -120.372093 66 3556ft 112kts
06-Dec-18 13:57 34.956514 -120.337213 65 3542ft 112kts
06-Dec-18 13:58 34.968916 -120.302176 66 3527ft 112kts
06-Dec-18 13:59 34.980665 -120.266866 67 3515ft 112kts
06-Dec-18 14:00 34.990924 -120.230892 70 3514ft 112kts
06-Dec-18 14:00 35.000523 -120.201702 62 3762ft 111kts
06-Dec-18 14:02 35.016464 -120.163987 59 4055ft 101kts
06-Dec-18 14:03 35.030075 -120.131706 63 4078ft 118kts
06-Dec-18 14:03 35.037035 -120.112993 64 4082ft 119kts
06-Dec-18 14:04 35.050244 -120.075798 65 4084ft 120kts
06-Dec-18 14:06 35.065318 -120.031267 64 4038ft 121kts
06-Dec-18 14:07 35.079182 -119.993795 64 4001ft 121kts
06-Dec-18 14:07 35.090830 -119.963528 61 4022ft 119kts
06-Dec-18 14:09 35.107089 -119.922623 62 4037ft 119kts
06-Dec-18 14:09 35.118962 -119.891941 63 4048ft 120kts
06-Dec-18 14:11 35.135253 -119.848858 64 4062ft 120kts
06-Dec-18 14:11 35.146666 -119.818074 64 4073ft 120kts
06-Dec-18 14:12 35.159864 -119.781002 66 4083ft 120kts
06-Dec-18 14:13 35.174523 -119.743820 65 4436ft 121kts
06-Dec-18 14:14 35.189641 -119.707225 63 4404ft 121kts
06-Dec-18 14:15 35.204021 -119.669252 70 3428ft 118kts
06-Dec-18 14:16 35.214266 -119.634571 72 3084ft 100kts
06-Dec-18 14:17 35.226024 -119.601917 66 2901ft 106kts
06-Dec-18 14:18 35.235293 -119.577992 66 2835ft 102kts
06-Dec-18 14:19 35.248230 -119.545647 65 3186ft 114kts
06-Dec-18 14:20 35.260759 -119.511817 64 3512ft 121kts
06-Dec-18 14:21 35.273626 -119.475355 67 3481ft 115kts
06-Dec-18 14:22 35.287059 -119.440754 64 3520ft 112kts
06-Dec-18 14:23 35.300284 -119.406220 60 3541ft 112kts
06-Dec-18 14:24 35.314966 -119.372447 65 3565ft 112kts
06-Dec-18 14:25 35.327049 -119.338626 66 3586ft 112kts
06-Dec-18 14:26 35.341143 -119.303959 62 3548ft 114kts
06-Dec-18 14:27 35.355375 -119.269231 62 3507ft 115kts
06-Dec-18 14:28 35.369689 -119.234310 64 3458ft 114kts
06-Dec-18 14:29 35.382571 -119.198374 67 3446ft 110kts
06-Dec-18 14:30 35.390804 -119.171961 70 3537ft 109kts
06-Dec-18 14:31 35.401697 -119.137917 70 2623ft 107kts
06-Dec-18 14:32 35.410653 -119.106446 70 1638ft 95kts
06-Dec-18 14:33 35.413034 -119.074413 128 1534ft 92kts
06-Dec-18 14:34 35.394916 -119.051395 135 1598ft 96kts
06-Dec-18 14:35 35.400592 -119.029844 38 1219ft 78kts
06-Dec-18 14:36 35.418305 -119.037143 315 830ft 72kts
06-Dec-18 14:37 35.431770 -119.053685 315 529ft 67kts
06-Dec-18 14:38 35.436252 -119.057811 60 492ft 0kts
06-Dec-18 14:39 35.436328 -119.057623 76 493ft 5kts
06-Dec-18 14:40 35.435022 -119.054044 45 496ft 6kts
06-Dec-18 14:41 35.435489 -119.053628 144 500ft 0kts
06-Dec-18 14:42 35.435489 -119.053628 144 500ft 0kts
06-Dec-18 14:43 35.435489 -119.053628 144 500ft 0kts
06-Dec-18 14:44 35.435489 -119.053628 144 500ft 0kts
06-Dec-18 14:45 35.435489 -119.053628 144 500ft 0kts
06-Dec-18 14:46 35.435489 -119.053628 144 500ft 0kts
06-Dec-18 14:47 35.435489 -119.053628 144 500ft 0kts
06-Dec-18 14:48 35.435489 -119.053628 144 500ft 0kts
06-Dec-18 14:49 35.435489 -119.053628 144 500ft 0kts
06-Dec-18 14:50 35.435489 -119.053628 144 500ft 0kts
06-Dec-18 14:51 35.435489 -119.053628 144 500ft 0kts
06-Dec-18 14:52 35.435489 -119.053628 144 500ft 0kts

Navigation Log

Ident Type
Flight plan parsing failed, navigation log unavailable